createdAt,value
2022-09-18T00:01:18.811Z,11.32
2022-09-18T00:03:47.271Z,11.36
2022-09-18T00:06:17.098Z,9.99
2022-09-18T00:08:44.692Z,9.96
2022-09-18T00:11:14.805Z,11.38
2022-09-18T00:13:45.123Z,10.60
2022-09-18T00:16:14.729Z,11.42
2022-09-18T00:18:41.908Z,10.07
2022-09-18T00:21:14.517Z,11.37
2022-09-18T00:23:46.027Z,9.90
2022-09-18T00:26:15.496Z,11.11
2022-09-18T00:28:42.577Z,11.37
2022-09-18T00:31:15.624Z,10.78
2022-09-18T00:33:43.182Z,11.18
2022-09-18T00:36:12.951Z,11.39
2022-09-18T00:38:40.717Z,9.50
2022-09-18T00:41:13.251Z,10.24
2022-09-18T00:43:40.959Z,11.19
2022-09-18T00:46:22.838Z,11.36
2022-09-18T00:49:14.138Z,10.90
2022-09-18T00:51:44.371Z,9.11
2022-09-18T00:54:25.339Z,9.93
2022-09-18T00:56:55.706Z,11.22
2022-09-18T00:59:27.622Z,10.81
2022-09-18T01:01:56.099Z,10.20
2022-09-18T01:04:23.219Z,10.63
2022-09-18T01:07:05.276Z,9.08
2022-09-18T01:10:03.959Z,11.28
2022-09-18T01:12:45.647Z,9.28
2022-09-18T01:15:41.646Z,10.83
2022-09-18T01:18:50.250Z,10.30
2022-09-18T01:21:24.308Z,7.87
2022-09-18T01:24:42.663Z,8.82
2022-09-18T01:27:18.847Z,10.70
2022-09-18T01:30:10.555Z,10.60
2022-09-18T01:33:04.242Z,10.43
2022-09-18T01:35:43.407Z,9.64
2022-09-18T01:38:33.858Z,11.32
2022-09-18T01:41:17.374Z,9.90
2022-09-18T01:43:45.661Z,11.31
2022-09-18T01:46:17.143Z,10.94
2022-09-18T01:48:56.254Z,10.53
2022-09-18T01:51:32.348Z,11.35
2022-09-18T01:54:07.761Z,10.66
2022-09-18T01:56:47.882Z,11.30
2022-09-18T01:59:24.485Z,10.65
2022-09-18T02:02:04.216Z,10.52
2022-09-18T02:04:35.092Z,10.42
2022-09-18T02:07:20.463Z,10.41
2022-09-18T02:09:48.310Z,11.05
2022-09-18T02:12:20.788Z,10.57
2022-09-18T02:14:55.083Z,11.23
2022-09-18T02:17:46.095Z,10.41
2022-09-18T02:20:21.892Z,11.18
2022-09-18T02:22:51.558Z,11.19
2022-09-18T02:25:25.516Z,10.09
2022-09-18T02:27:55.136Z,9.59
2022-09-18T02:30:22.181Z,11.19
2022-09-18T02:32:53.299Z,11.19
2022-09-18T02:35:20.642Z,11.20
2022-09-18T02:37:59.357Z,11.20
2022-09-18T02:41:01.300Z,11.23
2022-09-18T02:43:42.702Z,11.01
2022-09-18T02:46:26.889Z,11.25
2022-09-18T02:49:04.218Z,10.40
2022-09-18T02:51:37.719Z,11.10
2022-09-18T02:54:10.500Z,11.08
2022-09-18T02:56:52.484Z,10.63
2022-09-18T02:59:31.194Z,9.39
2022-09-18T03:01:59.726Z,10.65
2022-09-18T03:04:29.184Z,11.29
2022-09-18T03:07:18.993Z,10.68
2022-09-18T03:09:48.330Z,9.95
2022-09-18T03:12:16.142Z,10.58
2022-09-18T03:14:49.414Z,11.23
2022-09-18T03:17:17.115Z,10.96
2022-09-18T03:19:45.867Z,9.81
2022-09-18T03:22:13.164Z,9.80
2022-09-18T03:24:41.508Z,10.18
2022-09-18T03:27:08.230Z,9.71
2022-09-18T03:29:35.837Z,11.20
2022-09-18T03:32:03.049Z,11.21
2022-09-18T03:34:36.592Z,10.24
2022-09-18T03:37:04.086Z,10.90
2022-09-18T03:39:30.668Z,10.19
2022-09-18T03:41:58.247Z,11.03
2022-09-18T03:44:24.793Z,10.61
2022-09-18T03:46:52.057Z,10.86
2022-09-18T03:49:19.866Z,10.83
2022-09-18T03:51:46.666Z,5.46
2022-09-18T03:54:14.697Z,10.67
2022-09-18T03:56:41.742Z,10.39
2022-09-18T03:59:34.379Z,10.53
2022-09-18T04:02:13.296Z,10.38
2022-09-18T04:04:58.912Z,9.49
2022-09-18T04:07:54.751Z,10.33
2022-09-18T04:10:50.707Z,9.86
2022-09-18T04:13:17.782Z,9.47
2022-09-18T04:15:47.623Z,11.17
2022-09-18T04:18:14.604Z,10.38
2022-09-18T04:20:41.567Z,10.20
2022-09-18T04:23:10.923Z,10.29
2022-09-18T04:25:38.904Z,8.11
2022-09-18T04:28:05.618Z,9.91
2022-09-18T04:30:32.733Z,10.93
2022-09-18T04:32:59.448Z,6.73
2022-09-18T04:35:26.805Z,10.21
2022-09-18T04:37:54.316Z,10.18
2022-09-18T04:40:21.099Z,8.99
2022-09-18T04:42:48.134Z,10.41
2022-09-18T04:45:14.904Z,10.06
2022-09-18T04:47:41.516Z,10.54
2022-09-18T04:50:08.973Z,10.73
2022-09-18T04:52:36.041Z,10.61
2022-09-18T04:55:04.047Z,10.97
2022-09-18T04:57:31.837Z,10.99
2022-09-18T04:59:59.236Z,10.32
2022-09-18T05:02:26.084Z,10.51
2022-09-18T05:04:53.265Z,10.99
2022-09-18T05:07:31.626Z,9.48
2022-09-18T05:09:58.624Z,11.10
2022-09-18T05:12:27.094Z,10.01
2022-09-18T05:14:54.468Z,10.74
2022-09-18T05:17:21.927Z,10.88
2022-09-18T05:20:00.593Z,9.59
2022-09-18T05:22:34.016Z,10.41
2022-09-18T05:25:00.949Z,9.17
2022-09-18T05:27:29.223Z,10.70
2022-09-18T05:29:56.869Z,10.84
2022-09-18T05:32:33.894Z,8.51
2022-09-18T05:35:01.127Z,10.49
2022-09-18T05:37:27.995Z,10.65
2022-09-18T05:39:56.391Z,10.68
2022-09-18T05:42:23.381Z,9.54
2022-09-18T05:44:50.688Z,11.41
2022-09-18T05:47:22.029Z,11.29
2022-09-18T05:49:50.366Z,11.33
2022-09-18T05:52:17.085Z,9.76
2022-09-18T05:54:44.050Z,11.21
2022-09-18T05:57:10.771Z,10.05
2022-09-18T05:59:37.378Z,10.44
2022-09-18T06:02:05.527Z,10.96
2022-09-18T06:04:58.762Z,10.48
2022-09-18T06:07:25.445Z,11.55
2022-09-18T06:09:52.106Z,10.30
2022-09-18T06:12:24.545Z,11.18
2022-09-18T06:14:51.780Z,11.41
2022-09-18T06:17:18.366Z,11.61
2022-09-18T06:19:45.802Z,11.38
2022-09-18T06:22:13.511Z,11.59
2022-09-18T06:24:42.295Z,11.25
2022-09-18T06:27:16.932Z,7.22
2022-09-18T06:29:44.246Z,11.00
2022-09-18T06:32:14.760Z,11.55
2022-09-18T06:34:45.249Z,10.83
2022-09-18T06:37:15.292Z,11.54
2022-09-18T06:39:41.948Z,12.19
2022-09-18T06:42:18.724Z,9.81
2022-09-18T06:45:09.123Z,12.42
2022-09-18T06:47:36.081Z,12.23
2022-09-18T06:50:06.662Z,12.44
2022-09-18T06:52:33.761Z,11.63
2022-09-18T06:55:04.091Z,11.95
2022-09-18T06:57:31.994Z,12.61
2022-09-18T06:59:58.529Z,11.91
2022-09-18T07:02:26.776Z,11.25
2022-09-18T07:05:04.129Z,12.47
2022-09-18T07:07:32.453Z,12.24
2022-09-18T07:10:00.099Z,12.93
2022-09-18T07:12:36.058Z,12.45
2022-09-18T07:15:05.319Z,13.36
2022-09-18T07:17:35.119Z,13.26
2022-09-18T07:20:02.310Z,12.91
2022-09-18T07:22:42.610Z,14.03
2022-09-18T07:25:11.953Z,13.95
2022-09-18T07:27:42.645Z,13.44
2022-09-18T07:30:10.764Z,14.13
2022-09-18T07:32:37.455Z,13.59
2022-09-18T07:35:10.278Z,13.68
2022-09-18T07:37:39.021Z,13.88
2022-09-18T07:40:27.172Z,13.60
2022-09-18T07:43:16.979Z,12.82
2022-09-18T07:45:50.729Z,12.66
2022-09-18T07:48:17.933Z,13.93
2022-09-18T07:50:48.095Z,14.34
2022-09-18T07:53:17.635Z,14.48
2022-09-18T07:55:50.156Z,14.48
2022-09-18T07:58:17.891Z,14.65
2022-09-18T08:01:06.451Z,16.23
2022-09-18T08:03:41.676Z,16.49
2022-09-18T08:06:28.791Z,15.75
2022-09-18T08:09:18.277Z,17.15
2022-09-18T08:12:05.522Z,16.55
2022-09-18T08:14:47.542Z,16.55
2022-09-18T08:17:45.700Z,15.31
2022-09-18T08:20:23.525Z,15.69
2022-09-18T08:22:56.039Z,16.74
2022-09-18T08:25:27.581Z,17.35
2022-09-18T08:28:00.205Z,17.62
2022-09-18T08:30:35.703Z,18.23
2022-09-18T08:33:08.149Z,18.10
2022-09-18T08:35:35.642Z,16.91
2022-09-18T08:38:17.360Z,17.52
2022-09-18T08:41:21.601Z,17.51
2022-09-18T08:44:08.503Z,17.07
2022-09-18T08:46:51.168Z,17.21
2022-09-18T08:49:40.130Z,16.50
2022-09-18T08:52:21.523Z,16.67
2022-09-18T08:55:08.386Z,16.58
2022-09-18T08:58:03.614Z,15.45
2022-09-18T09:00:43.812Z,15.58
2022-09-18T09:03:23.215Z,15.61
2022-09-18T09:06:16.938Z,14.78
2022-09-18T09:08:54.086Z,15.85
2022-09-18T09:11:45.570Z,16.14
2022-09-18T09:14:57.130Z,15.51
2022-09-18T09:17:41.874Z,16.31
2022-09-18T09:20:19.134Z,16.19
2022-09-18T09:22:55.881Z,15.86
2022-09-18T09:25:52.039Z,15.47
2022-09-18T09:28:52.857Z,14.92
2022-09-18T09:31:58.493Z,13.81
2022-09-18T09:34:32.313Z,14.55
2022-09-18T09:37:23.878Z,13.47
2022-09-18T09:40:02.925Z,11.87
2022-09-18T09:43:11.175Z,14.45
2022-09-18T09:45:48.189Z,12.10
2022-09-18T09:48:24.555Z,14.46
2022-09-18T09:51:28.108Z,15.39
2022-09-18T09:53:56.161Z,14.58
2022-09-18T09:56:30.584Z,15.70
2022-09-18T09:59:25.023Z,16.16
2022-09-18T10:02:32.803Z,16.79
2022-09-18T10:05:07.448Z,17.42
2022-09-18T10:07:45.285Z,16.60
2022-09-18T10:10:23.954Z,17.70
2022-09-18T10:13:06.757Z,17.24
2022-09-18T10:15:39.612Z,16.99
2022-09-18T10:18:22.997Z,16.24
2022-09-18T10:20:53.754Z,15.01
2022-09-18T10:23:33.885Z,15.41
2022-09-18T10:26:03.020Z,14.80
2022-09-18T10:28:30.937Z,14.36
2022-09-18T10:31:04.235Z,15.36
2022-09-18T10:33:35.661Z,15.25
2022-09-18T10:36:17.485Z,15.32
2022-09-18T10:38:44.241Z,14.52
2022-09-18T10:41:38.877Z,14.99
2022-09-18T10:44:15.010Z,15.19
2022-09-18T10:47:08.134Z,14.76
2022-09-18T10:49:40.932Z,14.29
2022-09-18T10:52:27.711Z,15.81
2022-09-18T10:55:12.096Z,16.11
2022-09-18T10:58:02.027Z,15.25
2022-09-18T11:00:39.950Z,15.95
2022-09-18T11:03:46.712Z,15.57
2022-09-18T11:06:25.497Z,15.45
2022-09-18T11:09:00.717Z,14.78
2022-09-18T11:11:32.776Z,15.57
2022-09-18T11:14:26.186Z,14.43
2022-09-18T11:17:01.384Z,15.38
2022-09-18T11:19:45.872Z,13.92
2022-09-18T11:22:39.592Z,15.27
2022-09-18T11:25:14.809Z,15.10
2022-09-18T11:27:56.366Z,14.84
2022-09-18T11:30:30.891Z,14.66
2022-09-18T11:33:10.157Z,13.72
2022-09-18T11:35:45.315Z,14.34
2022-09-18T11:38:17.126Z,14.57
2022-09-18T11:40:48.309Z,15.19
2022-09-18T11:43:38.114Z,15.64
2022-09-18T11:46:43.428Z,15.19
2022-09-18T11:49:19.550Z,15.47
2022-09-18T11:51:52.254Z,15.45
2022-09-18T11:55:01.348Z,14.82
2022-09-18T11:58:06.167Z,14.93
2022-09-18T12:00:42.495Z,14.39
2022-09-18T12:03:19.165Z,14.59
2022-09-18T12:05:54.080Z,13.98
2022-09-18T12:08:41.667Z,15.11
2022-09-18T12:11:31.166Z,15.32
2022-09-18T12:14:12.671Z,15.23
2022-09-18T12:17:01.273Z,15.99
2022-09-18T12:19:40.431Z,16.33
2022-09-18T12:22:16.810Z,16.33
2022-09-18T12:24:54.615Z,16.52
2022-09-18T12:28:01.303Z,15.36
2022-09-18T12:30:44.467Z,16.68
2022-09-18T12:33:20.625Z,16.96
2022-09-18T12:35:56.629Z,17.12
2022-09-18T12:38:33.682Z,17.33
2022-09-18T12:41:06.991Z,17.56
2022-09-18T12:44:21.740Z,17.46
2022-09-18T12:46:51.143Z,17.45
2022-09-18T12:49:45.266Z,16.59
2022-09-18T12:52:30.978Z,17.07
2022-09-18T12:55:13.017Z,16.55
2022-09-18T12:57:42.980Z,16.32
2022-09-18T13:00:15.758Z,15.84
2022-09-18T13:02:57.121Z,15.49
2022-09-18T13:05:35.403Z,15.11
2022-09-18T13:08:30.705Z,14.62
2022-09-18T13:11:10.968Z,13.79
2022-09-18T13:13:57.551Z,13.63
2022-09-18T13:16:33.582Z,13.97
2022-09-18T13:19:07.063Z,14.04
2022-09-18T13:21:39.073Z,13.33
2022-09-18T13:24:20.766Z,13.55
2022-09-18T13:26:51.429Z,13.20
2022-09-18T13:29:59.745Z,14.64
2022-09-18T13:32:37.181Z,14.43
2022-09-18T13:35:22.311Z,13.80
2022-09-18T13:38:02.711Z,13.51
2022-09-18T13:40:37.459Z,14.49
2022-09-18T13:43:36.789Z,14.26
2022-09-18T13:46:07.049Z,13.78
2022-09-18T13:48:42.808Z,14.33
2022-09-18T13:51:32.230Z,13.64
2022-09-18T13:54:28.933Z,14.19
2022-09-18T13:57:05.206Z,14.25
2022-09-18T13:59:44.216Z,14.12
2022-09-18T14:02:32.474Z,14.07
2022-09-18T14:05:11.169Z,12.69
2022-09-18T14:07:45.963Z,12.28
2022-09-18T14:10:25.980Z,13.71
2022-09-18T14:13:05.898Z,13.50
2022-09-18T14:15:33.686Z,13.19
2022-09-18T14:18:16.607Z,13.61
2022-09-18T14:20:52.440Z,12.77
2022-09-18T14:23:40.954Z,13.67
2022-09-18T14:26:09.182Z,11.62
2022-09-18T14:28:36.412Z,13.63
2022-09-18T14:31:29.539Z,13.25
2022-09-18T14:34:04.517Z,12.62
2022-09-18T14:36:54.634Z,12.81
2022-09-18T14:39:29.473Z,12.84
2022-09-18T14:42:02.370Z,13.00
2022-09-18T14:44:34.102Z,11.83
2022-09-18T14:47:04.275Z,11.59
2022-09-18T14:49:45.762Z,12.14
2022-09-18T14:52:31.876Z,12.62
2022-09-18T14:55:08.636Z,12.56
2022-09-18T14:57:46.458Z,12.63
2022-09-18T15:00:19.283Z,13.31
2022-09-18T15:03:00.637Z,13.04
2022-09-18T15:05:28.406Z,11.52
2022-09-18T15:08:03.510Z,12.50
2022-09-18T15:10:33.485Z,12.90
2022-09-18T15:13:07.111Z,13.02
2022-09-18T15:15:39.478Z,12.32
2022-09-18T15:18:24.721Z,13.10
2022-09-18T15:20:53.181Z,12.43
2022-09-18T15:23:29.261Z,13.12
2022-09-18T15:26:03.046Z,10.83
2022-09-18T15:28:35.580Z,12.30
2022-09-18T15:31:09.337Z,11.43
2022-09-18T15:33:45.885Z,12.96
2022-09-18T15:36:25.567Z,12.42
2022-09-18T15:38:53.518Z,12.08
2022-09-18T15:41:42.477Z,12.62
2022-09-18T15:44:34.397Z,12.80
2022-09-18T15:47:28.262Z,12.78
2022-09-18T15:49:56.292Z,12.26
2022-09-18T15:52:39.287Z,12.63
2022-09-18T15:55:33.823Z,12.11
2022-09-18T15:58:08.766Z,12.36
2022-09-18T16:00:38.450Z,11.07
2022-09-18T16:03:17.132Z,12.18
2022-09-18T16:05:53.890Z,11.78
2022-09-18T16:08:25.226Z,11.88
2022-09-18T16:10:53.732Z,10.47
2022-09-18T16:13:20.374Z,11.70
2022-09-18T16:15:47.777Z,9.88
2022-09-18T16:18:25.603Z,11.18
2022-09-18T16:20:53.839Z,10.87
2022-09-18T16:23:31.586Z,9.28
2022-09-18T16:26:14.451Z,10.53
2022-09-18T16:28:43.185Z,10.56
2022-09-18T16:31:16.818Z,10.45
2022-09-18T16:33:57.445Z,10.40
2022-09-18T16:36:29.334Z,10.04
2022-09-18T16:38:57.851Z,10.39
2022-09-18T16:41:24.986Z,8.73
2022-09-18T16:43:51.712Z,8.09
2022-09-18T16:46:20.720Z,9.91
2022-09-18T16:48:47.784Z,10.34
2022-09-18T16:51:14.408Z,9.64
2022-09-18T16:53:44.798Z,9.64
2022-09-18T16:56:16.406Z,6.89
2022-09-18T16:58:44.900Z,9.34
2022-09-18T17:01:15.733Z,9.44
2022-09-18T17:03:42.677Z,9.79
2022-09-18T17:06:09.442Z,9.77
2022-09-18T17:08:37.059Z,8.17
2022-09-18T17:11:05.085Z,10.37
2022-09-18T17:13:36.082Z,10.37
2022-09-18T17:16:03.253Z,9.93
2022-09-18T17:18:34.234Z,9.89
2022-09-18T17:21:07.127Z,7.96
2022-09-18T17:23:34.223Z,10.36
2022-09-18T17:26:09.129Z,9.98
2022-09-18T17:28:37.371Z,10.32
2022-09-18T17:31:12.006Z,8.31
2022-09-18T17:33:42.598Z,8.44
2022-09-18T17:36:11.909Z,10.43
2022-09-18T17:38:39.793Z,9.78
2022-09-18T17:41:09.659Z,10.43
2022-09-18T17:43:37.470Z,10.43
2022-09-18T17:46:10.625Z,9.79
2022-09-18T17:48:40.793Z,9.98
2022-09-18T17:51:19.785Z,10.45
2022-09-18T17:53:48.597Z,10.40
2022-09-18T17:56:18.425Z,10.40
2022-09-18T17:58:46.104Z,10.25
2022-09-18T18:01:19.939Z,9.49
2022-09-18T18:03:48.428Z,-143.43
2022-09-18T18:06:21.637Z,-143.43
2022-09-18T18:08:59.157Z,-143.43
2022-09-18T18:11:29.632Z,-143.43
2022-09-18T18:13:56.431Z,-143.43
2022-09-18T18:16:32.355Z,-143.43
2022-09-18T18:19:12.258Z,-143.43
2022-09-18T18:21:44.386Z,-143.43
2022-09-18T18:24:15.278Z,-143.43
2022-09-18T18:26:45.790Z,-143.43
2022-09-18T18:29:21.115Z,-143.43
2022-09-18T18:31:49.322Z,-143.43
2022-09-18T18:34:17.509Z,-143.43
2022-09-18T18:36:45.595Z,-143.43
2022-09-18T18:39:15.655Z,-143.43
2022-09-18T18:41:47.079Z,-143.43
2022-09-18T18:44:14.198Z,-143.43
2022-09-18T18:46:41.206Z,-143.43
2022-09-18T18:49:10.826Z,-143.43
2022-09-18T18:51:42.878Z,-143.43
2022-09-18T18:54:13.976Z,-143.43
2022-09-18T18:56:42.035Z,-143.43
2022-09-18T18:59:12.809Z,-143.43
2022-09-18T19:01:41.002Z,-143.43
2022-09-18T19:04:11.915Z,-143.43
2022-09-18T19:06:41.308Z,-143.43
2022-09-18T19:09:15.945Z,-143.43
2022-09-18T19:11:48.331Z,-143.43
2022-09-18T19:14:21.104Z,-143.43
2022-09-18T19:16:49.570Z,-143.43
2022-09-18T19:19:21.740Z,-143.43
2022-09-18T19:21:53.689Z,-143.43
2022-09-18T19:24:21.361Z,-143.43
2022-09-18T19:26:48.718Z,-143.43
2022-09-18T19:29:18.982Z,-143.43
2022-09-18T19:31:47.197Z,-143.43
2022-09-18T19:34:16.824Z,-143.43
2022-09-18T19:36:49.268Z,-143.43
2022-09-18T19:39:17.565Z,-143.43
2022-09-18T19:42:04.802Z,-143.43
2022-09-18T19:44:45.225Z,-143.43
2022-09-18T19:47:37.973Z,-143.43
2022-09-18T19:50:35.674Z,-143.43
2022-09-18T19:53:02.723Z,-143.43
2022-09-18T19:55:29.512Z,-143.43
2022-09-18T19:57:59.251Z,-143.43
2022-09-18T20:00:26.413Z,-143.43
2022-09-18T20:02:57.941Z,-143.43
2022-09-18T20:05:24.832Z,-143.43
2022-09-18T20:07:51.997Z,-143.43
2022-09-18T20:10:19.285Z,-143.43
2022-09-18T20:12:49.039Z,-143.43
2022-09-18T20:15:15.755Z,-143.43
2022-09-18T20:17:42.392Z,-143.43
2022-09-18T20:20:13.375Z,-143.43
2022-09-18T20:22:43.296Z,-143.43
2022-09-18T20:25:10.946Z,-143.43
2022-09-18T20:27:40.060Z,-143.43
2022-09-18T20:30:12.976Z,-143.43
2022-09-18T20:32:42.070Z,-143.43
2022-09-18T20:35:09.981Z,-143.43
2022-09-18T20:37:36.999Z,-143.43
2022-09-18T20:40:06.223Z,-143.43
2022-09-18T20:42:34.564Z,-143.43
2022-09-18T20:45:04.791Z,-143.43
